sensor_id;sensor_type;location;lat;lon;timestamp;P1;durP1;ratioP1;P2;durP2;ratioP2
78903;SDS011;68291;49.602;8.722;2023-04-24T00:01:48;1.70;;;1.40;;
78903;SDS011;68291;49.602;8.722;2023-04-24T00:04:21;3.47;;;1.30;;
78903;SDS011;68291;49.602;8.722;2023-04-24T00:07:07;1.67;;;1.07;;
78903;SDS011;68291;49.602;8.722;2023-04-24T00:09:38;1.90;;;1.20;;
78903;SDS011;68291;49.602;8.722;2023-04-24T00:12:10;1.30;;;1.13;;
78903;SDS011;68291;49.602;8.722;2023-04-24T00:17:49;1.60;;;1.23;;
78903;SDS011;68291;49.602;8.722;2023-04-24T00:20:45;1.00;;;1.00;;
78903;SDS011;68291;49.602;8.722;2023-04-24T00:23:27;1.70;;;1.30;;
78903;SDS011;68291;49.602;8.722;2023-04-24T00:26:06;2.07;;;1.30;;
78903;SDS011;68291;49.602;8.722;2023-04-24T00:28:39;3.07;;;1.70;;
78903;SDS011;68291;49.602;8.722;2023-04-24T00:34:22;3.13;;;1.47;;
78903;SDS011;68291;49.602;8.722;2023-04-24T00:37:07;2.73;;;1.40;;
78903;SDS011;68291;49.602;8.722;2023-04-24T00:39:40;3.13;;;1.77;;
78903;SDS011;68291;49.602;8.722;2023-04-24T00:42:35;1.80;;;1.20;;
78903;SDS011;68291;49.602;8.722;2023-04-24T00:45:11;1.90;;;1.30;;
78903;SDS011;68291;49.602;8.722;2023-04-24T00:47:53;1.77;;;1.20;;
78903;SDS011;68291;49.602;8.722;2023-04-24T00:50:35;3.30;;;1.47;;
78903;SDS011;68291;49.602;8.722;2023-04-24T00:53:24;2.00;;;1.30;;
78903;SDS011;68291;49.602;8.722;2023-04-24T00:55:56;1.60;;;1.20;;
78903;SDS011;68291;49.602;8.722;2023-04-24T00:58:38;3.40;;;1.30;;
78903;SDS011;68291;49.602;8.722;2023-04-24T01:01:19;2.50;;;1.63;;
78903;SDS011;68291;49.602;8.722;2023-04-24T01:04:07;2.53;;;1.53;;
78903;SDS011;68291;49.602;8.722;2023-04-24T01:07:02;1.20;;;1.10;;
78903;SDS011;68291;49.602;8.722;2023-04-24T01:09:53;1.83;;;1.20;;
78903;SDS011;68291;49.602;8.722;2023-04-24T01:12:24;2.80;;;1.40;;
78903;SDS011;68291;49.602;8.722;2023-04-24T01:15:08;3.87;;;1.60;;
78903;SDS011;68291;49.602;8.722;2023-04-24T01:17:46;1.90;;;1.40;;
78903;SDS011;68291;49.602;8.722;2023-04-24T01:20:45;5.77;;;1.67;;
78903;SDS011;68291;49.602;8.722;2023-04-24T01:23:42;3.70;;;1.30;;
78903;SDS011;68291;49.602;8.722;2023-04-24T01:26:33;3.87;;;1.43;;
78903;SDS011;68291;49.602;8.722;2023-04-24T01:29:08;4.43;;;1.50;;
78903;SDS011;68291;49.602;8.722;2023-04-24T01:31:45;3.63;;;1.33;;
78903;SDS011;68291;49.602;8.722;2023-04-24T01:34:31;3.03;;;1.37;;
78903;SDS011;68291;49.602;8.722;2023-04-24T01:37:21;3.70;;;1.20;;
78903;SDS011;68291;49.602;8.722;2023-04-24T01:40:32;4.27;;;1.40;;
78903;SDS011;68291;49.602;8.722;2023-04-24T01:43:17;3.77;;;1.30;;
78903;SDS011;68291;49.602;8.722;2023-04-24T01:45:52;2.97;;;1.30;;
78903;SDS011;68291;49.602;8.722;2023-04-24T01:48:26;2.33;;;1.47;;
78903;SDS011;68291;49.602;8.722;2023-04-24T01:51:02;3.30;;;1.60;;
78903;SDS011;68291;49.602;8.722;2023-04-24T01:53:48;3.20;;;1.60;;
78903;SDS011;68291;49.602;8.722;2023-04-24T01:56:41;2.13;;;1.37;;
78903;SDS011;68291;49.602;8.722;2023-04-24T01:59:22;2.73;;;1.50;;
78903;SDS011;68291;49.602;8.722;2023-04-24T02:02:01;2.07;;;1.40;;
78903;SDS011;68291;49.602;8.722;2023-04-24T02:04:58;1.83;;;1.33;;
78903;SDS011;68291;49.602;8.722;2023-04-24T02:07:37;2.93;;;1.47;;
78903;SDS011;68291;49.602;8.722;2023-04-24T02:10:20;1.80;;;1.40;;
78903;SDS011;68291;49.602;8.722;2023-04-24T02:12:58;4.07;;;1.50;;
78903;SDS011;68291;49.602;8.722;2023-04-24T02:15:40;2.43;;;1.30;;
78903;SDS011;68291;49.602;8.722;2023-04-24T02:18:25;2.33;;;1.57;;
78903;SDS011;68291;49.602;8.722;2023-04-24T02:20:56;4.23;;;1.30;;
78903;SDS011;68291;49.602;8.722;2023-04-24T02:23:27;3.53;;;1.40;;
78903;SDS011;68291;49.602;8.722;2023-04-24T02:26:15;1.70;;;1.20;;
78903;SDS011;68291;49.602;8.722;2023-04-24T02:32:32;2.00;;;1.30;;
78903;SDS011;68291;49.602;8.722;2023-04-24T02:35:13;4.17;;;1.60;;
78903;SDS011;68291;49.602;8.722;2023-04-24T02:37:56;1.17;;;1.07;;
78903;SDS011;68291;49.602;8.722;2023-04-24T02:40:43;1.87;;;1.17;;
78903;SDS011;68291;49.602;8.722;2023-04-24T02:43:17;2.00;;;1.20;;
78903;SDS011;68291;49.602;8.722;2023-04-24T02:45:54;3.43;;;1.10;;
78903;SDS011;68291;49.602;8.722;2023-04-24T02:48:25;2.30;;;1.40;;
78903;SDS011;68291;49.602;8.722;2023-04-24T02:51:16;6.27;;;1.40;;
78903;SDS011;68291;49.602;8.722;2023-04-24T02:53:55;2.60;;;1.57;;
78903;SDS011;68291;49.602;8.722;2023-04-24T02:56:42;1.90;;;1.40;;
78903;SDS011;68291;49.602;8.722;2023-04-24T02:59:13;4.90;;;1.50;;
78903;SDS011;68291;49.602;8.722;2023-04-24T03:02:13;2.77;;;1.70;;
78903;SDS011;68291;49.602;8.722;2023-04-24T03:04:45;3.03;;;1.40;;
78903;SDS011;68291;49.602;8.722;2023-04-24T03:07:31;3.30;;;1.70;;
78903;SDS011;68291;49.602;8.722;2023-04-24T03:10:11;3.17;;;1.90;;
78903;SDS011;68291;49.602;8.722;2023-04-24T03:12:45;2.73;;;1.73;;
78903;SDS011;68291;49.602;8.722;2023-04-24T03:15:32;2.37;;;1.70;;
78903;SDS011;68291;49.602;8.722;2023-04-24T03:18:16;4.57;;;1.80;;
78903;SDS011;68291;49.602;8.722;2023-04-24T03:20:52;1.47;;;1.37;;
78903;SDS011;68291;49.602;8.722;2023-04-24T03:23:24;1.67;;;1.37;;
78903;SDS011;68291;49.602;8.722;2023-04-24T03:25:55;2.33;;;1.57;;
78903;SDS011;68291;49.602;8.722;2023-04-24T03:28:41;4.43;;;1.73;;
78903;SDS011;68291;49.602;8.722;2023-04-24T03:31:14;3.33;;;1.50;;
78903;SDS011;68291;49.602;8.722;2023-04-24T03:34:15;1.90;;;1.60;;
78903;SDS011;68291;49.602;8.722;2023-04-24T03:36:50;2.87;;;1.60;;
78903;SDS011;68291;49.602;8.722;2023-04-24T03:39:25;2.10;;;1.63;;
78903;SDS011;68291;49.602;8.722;2023-04-24T03:42:10;2.23;;;1.90;;
78903;SDS011;68291;49.602;8.722;2023-04-24T03:44:53;3.50;;;2.20;;
78903;SDS011;68291;49.602;8.722;2023-04-24T03:47:53;2.37;;;1.50;;
78903;SDS011;68291;49.602;8.722;2023-04-24T03:50:44;2.10;;;1.53;;
78903;SDS011;68291;49.602;8.722;2023-04-24T03:53:38;3.73;;;1.93;;
78903;SDS011;68291;49.602;8.722;2023-04-24T03:56:11;2.07;;;1.70;;
78903;SDS011;68291;49.602;8.722;2023-04-24T03:59:12;2.90;;;1.80;;
78903;SDS011;68291;49.602;8.722;2023-04-24T04:01:47;3.93;;;2.60;;
78903;SDS011;68291;49.602;8.722;2023-04-24T04:04:38;3.20;;;2.33;;
78903;SDS011;68291;49.602;8.722;2023-04-24T04:07:17;3.00;;;2.30;;
78903;SDS011;68291;49.602;8.722;2023-04-24T04:09:51;3.43;;;2.40;;
78903;SDS011;68291;49.602;8.722;2023-04-24T04:12:31;2.30;;;2.10;;
78903;SDS011;68291;49.602;8.722;2023-04-24T04:15:08;2.83;;;1.97;;
78903;SDS011;68291;49.602;8.722;2023-04-24T04:17:49;3.90;;;2.20;;
78903;SDS011;68291;49.602;8.722;2023-04-24T04:20:21;6.13;;;2.60;;
78903;SDS011;68291;49.602;8.722;2023-04-24T04:23:16;2.33;;;2.10;;
78903;SDS011;68291;49.602;8.722;2023-04-24T04:26:19;2.70;;;2.27;;
78903;SDS011;68291;49.602;8.722;2023-04-24T04:29:20;3.27;;;2.80;;
78903;SDS011;68291;49.602;8.722;2023-04-24T04:32:07;2.80;;;2.47;;
78903;SDS011;68291;49.602;8.722;2023-04-24T04:34:44;3.63;;;3.33;;
78903;SDS011;68291;49.602;8.722;2023-04-24T04:37:19;3.37;;;2.50;;
78903;SDS011;68291;49.602;8.722;2023-04-24T04:40:12;2.60;;;2.40;;
78903;SDS011;68291;49.602;8.722;2023-04-24T04:42:50;5.90;;;2.90;;
78903;SDS011;68291;49.602;8.722;2023-04-24T04:45:23;3.90;;;2.70;;
78903;SDS011;68291;49.602;8.722;2023-04-24T04:48:32;4.83;;;3.47;;
78903;SDS011;68291;49.602;8.722;2023-04-24T04:51:07;3.60;;;3.13;;
78903;SDS011;68291;49.602;8.722;2023-04-24T04:53:48;3.90;;;3.47;;
78903;SDS011;68291;49.602;8.722;2023-04-24T04:59:44;4.27;;;3.10;;
78903;SDS011;68291;49.602;8.722;2023-04-24T05:02:25;4.90;;;3.30;;
78903;SDS011;68291;49.602;8.722;2023-04-24T05:05:12;3.30;;;3.00;;
78903;SDS011;68291;49.602;8.722;2023-04-24T05:07:52;3.67;;;3.37;;
78903;SDS011;68291;49.602;8.722;2023-04-24T05:10:32;3.93;;;3.23;;
78903;SDS011;68291;49.602;8.722;2023-04-24T05:13:19;4.70;;;3.30;;
78903;SDS011;68291;49.602;8.722;2023-04-24T05:16:12;4.07;;;3.23;;
78903;SDS011;68291;49.602;8.722;2023-04-24T05:19:08;4.70;;;3.57;;
78903;SDS011;68291;49.602;8.722;2023-04-24T05:21:46;4.27;;;3.87;;
78903;SDS011;68291;49.602;8.722;2023-04-24T05:24:23;4.03;;;3.63;;
78903;SDS011;68291;49.602;8.722;2023-04-24T05:27:36;4.63;;;3.70;;
78903;SDS011;68291;49.602;8.722;2023-04-24T05:30:20;5.33;;;3.70;;
78903;SDS011;68291;49.602;8.722;2023-04-24T05:32:58;4.17;;;3.37;;
78903;SDS011;68291;49.602;8.722;2023-04-24T05:35:46;4.70;;;3.80;;
78903;SDS011;68291;49.602;8.722;2023-04-24T05:38:43;4.33;;;3.93;;
78903;SDS011;68291;49.602;8.722;2023-04-24T05:41:15;4.17;;;3.77;;
78903;SDS011;68291;49.602;8.722;2023-04-24T05:43:47;5.77;;;4.30;;
78903;SDS011;68291;49.602;8.722;2023-04-24T05:49:41;6.00;;;4.20;;
78903;SDS011;68291;49.602;8.722;2023-04-24T05:52:12;4.40;;;3.60;;
78903;SDS011;68291;49.602;8.722;2023-04-24T05:54:47;6.30;;;3.77;;
78903;SDS011;68291;49.602;8.722;2023-04-24T05:57:34;5.43;;;4.10;;
78903;SDS011;68291;49.602;8.722;2023-04-24T06:00:14;4.50;;;3.90;;
78903;SDS011;68291;49.602;8.722;2023-04-24T06:03:14;4.60;;;4.17;;
78903;SDS011;68291;49.602;8.722;2023-04-24T06:05:57;4.57;;;4.13;;
78903;SDS011;68291;49.602;8.722;2023-04-24T06:08:38;4.70;;;4.20;;
78903;SDS011;68291;49.602;8.722;2023-04-24T06:11:19;4.37;;;3.97;;
78903;SDS011;68291;49.602;8.722;2023-04-24T06:13:50;5.07;;;4.50;;
78903;SDS011;68291;49.602;8.722;2023-04-24T06:16:46;5.83;;;4.67;;
78903;SDS011;68291;49.602;8.722;2023-04-24T06:22:26;5.57;;;4.80;;
78903;SDS011;68291;49.602;8.722;2023-04-24T06:25:13;5.30;;;4.63;;
78903;SDS011;68291;49.602;8.722;2023-04-24T06:27:44;6.93;;;4.40;;
78903;SDS011;68291;49.602;8.722;2023-04-24T06:30:17;5.23;;;4.73;;
78903;SDS011;68291;49.602;8.722;2023-04-24T06:32:50;6.17;;;4.83;;
78903;SDS011;68291;49.602;8.722;2023-04-24T06:35:51;4.90;;;4.20;;
78903;SDS011;68291;49.602;8.722;2023-04-24T06:38:39;5.60;;;4.63;;
78903;SDS011;68291;49.602;8.722;2023-04-24T06:41:16;5.50;;;4.87;;
78903;SDS011;68291;49.602;8.722;2023-04-24T06:44:07;6.93;;;5.50;;
78903;SDS011;68291;49.602;8.722;2023-04-24T06:46:57;4.87;;;4.03;;
78903;SDS011;68291;49.602;8.722;2023-04-24T06:49:28;6.23;;;5.20;;
78903;SDS011;68291;49.602;8.722;2023-04-24T06:52:25;5.87;;;5.13;;
78903;SDS011;68291;49.602;8.722;2023-04-24T06:55:21;7.47;;;5.10;;
78903;SDS011;68291;49.602;8.722;2023-04-24T06:57:56;5.47;;;4.57;;
78903;SDS011;68291;49.602;8.722;2023-04-24T07:00:42;5.80;;;5.13;;
78903;SDS011;68291;49.602;8.722;2023-04-24T07:03:25;5.70;;;5.10;;
78903;SDS011;68291;49.602;8.722;2023-04-24T07:06:04;6.20;;;5.20;;
78903;SDS011;68291;49.602;8.722;2023-04-24T07:09:02;5.37;;;4.47;;
78903;SDS011;68291;49.602;8.722;2023-04-24T07:11:51;5.23;;;4.13;;
78903;SDS011;68291;49.602;8.722;2023-04-24T07:14:27;4.90;;;4.00;;
78903;SDS011;68291;49.602;8.722;2023-04-24T07:17:07;4.73;;;4.33;;
78903;SDS011;68291;49.602;8.722;2023-04-24T07:19:43;4.23;;;3.83;;
78903;SDS011;68291;49.602;8.722;2023-04-24T07:22:17;4.07;;;3.60;;
78903;SDS011;68291;49.602;8.722;2023-04-24T07:24:53;3.73;;;3.10;;
78903;SDS011;68291;49.602;8.722;2023-04-24T07:27:40;3.33;;;3.03;;
78903;SDS011;68291;49.602;8.722;2023-04-24T07:30:15;3.43;;;2.83;;
78903;SDS011;68291;49.602;8.722;2023-04-24T07:32:45;2.80;;;2.47;;
78903;SDS011;68291;49.602;8.722;2023-04-24T07:35:16;2.87;;;2.30;;
78903;SDS011;68291;49.602;8.722;2023-04-24T07:37:53;4.20;;;2.43;;
78903;SDS011;68291;49.602;8.722;2023-04-24T07:40:45;2.63;;;2.43;;
78903;SDS011;68291;49.602;8.722;2023-04-24T07:43:42;2.87;;;2.43;;
78903;SDS011;68291;49.602;8.722;2023-04-24T07:46:23;3.70;;;2.37;;
78903;SDS011;68291;49.602;8.722;2023-04-24T07:49:01;3.60;;;2.40;;
78903;SDS011;68291;49.602;8.722;2023-04-24T07:51:40;2.97;;;2.23;;
78903;SDS011;68291;49.602;8.722;2023-04-24T07:54:19;3.00;;;2.23;;
78903;SDS011;68291;49.602;8.722;2023-04-24T07:57:08;3.00;;;2.30;;
78903;SDS011;68291;49.602;8.722;2023-04-24T08:00:08;2.77;;;2.10;;
78903;SDS011;68291;49.602;8.722;2023-04-24T08:03:13;2.50;;;2.30;;
78903;SDS011;68291;49.602;8.722;2023-04-24T08:05:47;3.40;;;2.40;;
78903;SDS011;68291;49.602;8.722;2023-04-24T08:08:29;2.70;;;2.00;;
78903;SDS011;68291;49.602;8.722;2023-04-24T08:11:01;2.40;;;2.13;;
78903;SDS011;68291;49.602;8.722;2023-04-24T08:13:55;3.57;;;2.20;;
78903;SDS011;68291;49.602;8.722;2023-04-24T08:16:27;2.67;;;2.10;;
78903;SDS011;68291;49.602;8.722;2023-04-24T08:19:17;2.70;;;2.37;;
78903;SDS011;68291;49.602;8.722;2023-04-24T08:21:59;5.53;;;2.40;;
78903;SDS011;68291;49.602;8.722;2023-04-24T08:24:51;2.70;;;2.50;;
78903;SDS011;68291;49.602;8.722;2023-04-24T08:27:35;3.70;;;2.50;;
78903;SDS011;68291;49.602;8.722;2023-04-24T08:33:30;3.30;;;2.60;;
78903;SDS011;68291;49.602;8.722;2023-04-24T08:36:05;3.97;;;2.80;;
78903;SDS011;68291;49.602;8.722;2023-04-24T08:38:49;4.13;;;2.80;;
78903;SDS011;68291;49.602;8.722;2023-04-24T08:41:26;3.60;;;2.87;;
78903;SDS011;68291;49.602;8.722;2023-04-24T08:43:59;3.40;;;2.80;;
78903;SDS011;68291;49.602;8.722;2023-04-24T08:46:46;3.47;;;2.60;;
78903;SDS011;68291;49.602;8.722;2023-04-24T08:49:25;5.43;;;2.87;;
78903;SDS011;68291;49.602;8.722;2023-04-24T08:52:11;2.60;;;2.40;;
78903;SDS011;68291;49.602;8.722;2023-04-24T08:54:51;5.63;;;3.13;;
78903;SDS011;68291;49.602;8.722;2023-04-24T08:57:34;3.63;;;3.30;;
78903;SDS011;68291;49.602;8.722;2023-04-24T09:00:18;3.87;;;3.57;;
78903;SDS011;68291;49.602;8.722;2023-04-24T09:03:24;4.43;;;3.57;;
78903;SDS011;68291;49.602;8.722;2023-04-24T09:06:11;4.67;;;3.60;;
78903;SDS011;68291;49.602;8.722;2023-04-24T09:08:44;4.03;;;3.33;;
78903;SDS011;68291;49.602;8.722;2023-04-24T09:11:30;3.90;;;3.10;;
78903;SDS011;68291;49.602;8.722;2023-04-24T09:14:05;3.30;;;2.73;;
78903;SDS011;68291;49.602;8.722;2023-04-24T09:17:01;3.77;;;3.27;;
78903;SDS011;68291;49.602;8.722;2023-04-24T09:19:58;4.70;;;3.47;;
78903;SDS011;68291;49.602;8.722;2023-04-24T09:22:48;3.63;;;3.33;;
78903;SDS011;68291;49.602;8.722;2023-04-24T09:25:34;3.77;;;3.27;;
78903;SDS011;68291;49.602;8.722;2023-04-24T09:28:08;5.43;;;3.47;;
78903;SDS011;68291;49.602;8.722;2023-04-24T09:31:04;4.47;;;3.80;;
78903;SDS011;68291;49.602;8.722;2023-04-24T09:33:37;4.27;;;3.60;;
78903;SDS011;68291;49.602;8.722;2023-04-24T09:39:32;3.93;;;3.13;;
78903;SDS011;68291;49.602;8.722;2023-04-24T09:42:03;3.37;;;2.73;;
78903;SDS011;68291;49.602;8.722;2023-04-24T09:44:34;3.10;;;2.80;;
78903;SDS011;68291;49.602;8.722;2023-04-24T09:47:26;2.90;;;2.60;;
78903;SDS011;68291;49.602;8.722;2023-04-24T09:50:23;2.90;;;2.60;;
78903;SDS011;68291;49.602;8.722;2023-04-24T09:53:24;2.90;;;2.60;;
78903;SDS011;68291;49.602;8.722;2023-04-24T09:56:10;4.40;;;2.13;;
78903;SDS011;68291;49.602;8.722;2023-04-24T09:59:01;4.03;;;2.50;;
78903;SDS011;68291;49.602;8.722;2023-04-24T10:01:50;3.00;;;2.40;;
78903;SDS011;68291;49.602;8.722;2023-04-24T10:04:31;3.73;;;2.27;;
78903;SDS011;68291;49.602;8.722;2023-04-24T10:07:12;2.83;;;2.57;;
78903;SDS011;68291;49.602;8.722;2023-04-24T10:09:51;2.87;;;2.40;;
78903;SDS011;68291;49.602;8.722;2023-04-24T10:12:37;2.53;;;2.33;;
78903;SDS011;68291;49.602;8.722;2023-04-24T10:15:18;6.30;;;2.53;;
78903;SDS011;68291;49.602;8.722;2023-04-24T10:18:11;4.93;;;2.77;;
78903;SDS011;68291;49.602;8.722;2023-04-24T10:21:06;3.17;;;2.40;;
78903;SDS011;68291;49.602;8.722;2023-04-24T10:23:56;3.23;;;2.40;;
78903;SDS011;68291;49.602;8.722;2023-04-24T10:30:00;3.80;;;2.97;;
78903;SDS011;68291;49.602;8.722;2023-04-24T10:32:32;4.00;;;3.60;;
78903;SDS011;68291;49.602;8.722;2023-04-24T10:35:18;3.73;;;3.33;;
78903;SDS011;68291;49.602;8.722;2023-04-24T10:38:12;3.53;;;3.20;;
78903;SDS011;68291;49.602;8.722;2023-04-24T10:40:57;4.37;;;3.07;;
78903;SDS011;68291;49.602;8.722;2023-04-24T10:44:07;4.03;;;3.27;;
78903;SDS011;68291;49.602;8.722;2023-04-24T10:47:03;3.20;;;2.80;;
78903;SDS011;68291;49.602;8.722;2023-04-24T10:49:50;4.13;;;2.97;;
78903;SDS011;68291;49.602;8.722;2023-04-24T10:52:43;3.00;;;2.23;;
78903;SDS011;68291;49.602;8.722;2023-04-24T10:58:39;3.47;;;2.40;;
78903;SDS011;68291;49.602;8.722;2023-04-24T11:01:27;3.03;;;2.13;;
78903;SDS011;68291;49.602;8.722;2023-04-24T11:04:21;4.23;;;2.23;;
78903;SDS011;68291;49.602;8.722;2023-04-24T11:07:11;2.50;;;2.30;;
78903;SDS011;68291;49.602;8.722;2023-04-24T11:09:58;2.80;;;2.50;;
78903;SDS011;68291;49.602;8.722;2023-04-24T11:12:31;2.60;;;2.40;;
78903;SDS011;68291;49.602;8.722;2023-04-24T11:15:13;3.13;;;2.60;;
78903;SDS011;68291;49.602;8.722;2023-04-24T11:18:11;3.03;;;2.40;;
78903;SDS011;68291;49.602;8.722;2023-04-24T11:21:09;2.83;;;2.53;;
78903;SDS011;68291;49.602;8.722;2023-04-24T11:23:58;3.20;;;2.70;;
78903;SDS011;68291;49.602;8.722;2023-04-24T11:26:59;3.17;;;2.70;;
78903;SDS011;68291;49.602;8.722;2023-04-24T11:29:43;2.90;;;2.60;;
78903;SDS011;68291;49.602;8.722;2023-04-24T11:32:22;2.90;;;2.60;;
78903;SDS011;68291;49.602;8.722;2023-04-24T11:35:30;3.50;;;2.63;;
78903;SDS011;68291;49.602;8.722;2023-04-24T11:38:22;6.10;;;2.70;;
78903;SDS011;68291;49.602;8.722;2023-04-24T11:41:12;3.53;;;2.70;;
78903;SDS011;68291;49.602;8.722;2023-04-24T11:43:43;4.43;;;3.37;;
78903;SDS011;68291;49.602;8.722;2023-04-24T11:46:33;2.80;;;2.60;;
78903;SDS011;68291;49.602;8.722;2023-04-24T11:49:05;3.40;;;3.03;;
78903;SDS011;68291;49.602;8.722;2023-04-24T11:52:05;3.30;;;2.93;;
78903;SDS011;68291;49.602;8.722;2023-04-24T11:54:46;4.17;;;3.10;;
78903;SDS011;68291;49.602;8.722;2023-04-24T11:57:33;3.27;;;2.90;;
78903;SDS011;68291;49.602;8.722;2023-04-24T12:00:04;3.10;;;2.80;;
78903;SDS011;68291;49.602;8.722;2023-04-24T12:02:39;4.17;;;3.10;;
78903;SDS011;68291;49.602;8.722;2023-04-24T12:05:25;3.63;;;3.07;;
78903;SDS011;68291;49.602;8.722;2023-04-24T12:08:00;4.37;;;2.93;;
78903;SDS011;68291;49.602;8.722;2023-04-24T12:10:53;4.80;;;3.20;;
78903;SDS011;68291;49.602;8.722;2023-04-24T12:13:49;3.13;;;2.83;;
78903;SDS011;68291;49.602;8.722;2023-04-24T12:16:20;4.00;;;3.53;;
78903;SDS011;68291;49.602;8.722;2023-04-24T12:19:09;3.80;;;3.40;;
78903;SDS011;68291;49.602;8.722;2023-04-24T12:22:03;5.23;;;3.50;;
78903;SDS011;68291;49.602;8.722;2023-04-24T12:25:02;5.00;;;3.37;;
78903;SDS011;68291;49.602;8.722;2023-04-24T12:27:53;4.27;;;3.20;;
78903;SDS011;68291;49.602;8.722;2023-04-24T12:30:29;5.70;;;3.83;;
78903;SDS011;68291;49.602;8.722;2023-04-24T12:33:04;4.10;;;3.47;;
78903;SDS011;68291;49.602;8.722;2023-04-24T12:35:52;4.53;;;3.60;;
78903;SDS011;68291;49.602;8.722;2023-04-24T12:38:32;4.40;;;3.53;;
78903;SDS011;68291;49.602;8.722;2023-04-24T12:44:15;6.43;;;4.00;;
78903;SDS011;68291;49.602;8.722;2023-04-24T12:46:55;3.50;;;3.20;;
78903;SDS011;68291;49.602;8.722;2023-04-24T12:49:41;4.27;;;3.87;;
78903;SDS011;68291;49.602;8.722;2023-04-24T12:52:14;4.03;;;3.03;;
78903;SDS011;68291;49.602;8.722;2023-04-24T12:55:00;5.80;;;3.70;;
78903;SDS011;68291;49.602;8.722;2023-04-24T12:57:45;3.90;;;3.47;;
78903;SDS011;68291;49.602;8.722;2023-04-24T13:00:26;6.67;;;3.67;;
78903;SDS011;68291;49.602;8.722;2023-04-24T13:03:06;13.37;;;3.70;;
78903;SDS011;68291;49.602;8.722;2023-04-24T13:05:47;3.53;;;3.00;;
78903;SDS011;68291;49.602;8.722;2023-04-24T13:08:27;5.60;;;3.47;;
78903;SDS011;68291;49.602;8.722;2023-04-24T13:11:11;4.47;;;2.93;;
78903;SDS011;68291;49.602;8.722;2023-04-24T13:13:51;3.97;;;3.30;;
78903;SDS011;68291;49.602;8.722;2023-04-24T13:16:26;4.17;;;3.40;;
78903;SDS011;68291;49.602;8.722;2023-04-24T13:19:12;5.97;;;3.60;;
78903;SDS011;68291;49.602;8.722;2023-04-24T13:21:51;4.20;;;3.80;;
78903;SDS011;68291;49.602;8.722;2023-04-24T13:24:23;5.17;;;3.67;;
78903;SDS011;68291;49.602;8.722;2023-04-24T13:27:14;3.37;;;3.07;;
78903;SDS011;68291;49.602;8.722;2023-04-24T13:33:03;5.20;;;3.70;;
78903;SDS011;68291;49.602;8.722;2023-04-24T13:35:48;4.93;;;3.43;;
78903;SDS011;68291;49.602;8.722;2023-04-24T13:38:30;7.83;;;3.63;;
78903;SDS011;68291;49.602;8.722;2023-04-24T13:41:17;3.40;;;3.10;;
78903;SDS011;68291;49.602;8.722;2023-04-24T13:43:52;3.83;;;2.93;;
78903;SDS011;68291;49.602;8.722;2023-04-24T13:46:35;3.50;;;3.20;;
78903;SDS011;68291;49.602;8.722;2023-04-24T13:49:21;3.80;;;3.27;;
78903;SDS011;68291;49.602;8.722;2023-04-24T13:51:54;3.73;;;3.30;;
78903;SDS011;68291;49.602;8.722;2023-04-24T13:54:42;4.33;;;3.50;;
78903;SDS011;68291;49.602;8.722;2023-04-24T13:57:28;3.23;;;2.93;;
78903;SDS011;68291;49.602;8.722;2023-04-24T14:00:14;3.87;;;3.47;;
78903;SDS011;68291;49.602;8.722;2023-04-24T14:03:16;3.90;;;3.30;;
78903;SDS011;68291;49.602;8.722;2023-04-24T14:06:12;4.00;;;3.33;;
78903;SDS011;68291;49.602;8.722;2023-04-24T14:09:08;4.00;;;3.13;;
78903;SDS011;68291;49.602;8.722;2023-04-24T14:11:54;4.60;;;3.47;;
78903;SDS011;68291;49.602;8.722;2023-04-24T14:14:35;5.13;;;3.60;;
78903;SDS011;68291;49.602;8.722;2023-04-24T14:17:12;4.63;;;3.10;;
78903;SDS011;68291;49.602;8.722;2023-04-24T14:19:46;4.33;;;3.03;;
78903;SDS011;68291;49.602;8.722;2023-04-24T14:22:35;3.97;;;3.07;;
78903;SDS011;68291;49.602;8.722;2023-04-24T14:25:08;4.33;;;3.17;;
78903;SDS011;68291;49.602;8.722;2023-04-24T14:27:51;8.33;;;3.30;;
78903;SDS011;68291;49.602;8.722;2023-04-24T14:30:47;4.73;;;3.30;;
78903;SDS011;68291;49.602;8.722;2023-04-24T14:33:31;4.10;;;3.30;;
78903;SDS011;68291;49.602;8.722;2023-04-24T14:39:21;5.57;;;2.87;;
78903;SDS011;68291;49.602;8.722;2023-04-24T14:42:07;4.83;;;2.93;;
78903;SDS011;68291;49.602;8.722;2023-04-24T14:44:37;3.40;;;3.10;;
78903;SDS011;68291;49.602;8.722;2023-04-24T14:47:17;3.30;;;3.00;;
78903;SDS011;68291;49.602;8.722;2023-04-24T14:49:59;4.70;;;3.30;;
78903;SDS011;68291;49.602;8.722;2023-04-24T14:52:50;3.50;;;2.90;;
78903;SDS011;68291;49.602;8.722;2023-04-24T14:55:34;2.93;;;2.63;;
78903;SDS011;68291;49.602;8.722;2023-04-24T14:58:20;5.00;;;3.17;;
78903;SDS011;68291;49.602;8.722;2023-04-24T15:01:09;4.67;;;3.13;;
78903;SDS011;68291;49.602;8.722;2023-04-24T15:04:00;5.37;;;3.43;;
78903;SDS011;68291;49.602;8.722;2023-04-24T15:06:52;6.27;;;3.03;;
78903;SDS011;68291;49.602;8.722;2023-04-24T15:09:34;4.37;;;3.50;;
78903;SDS011;68291;49.602;8.722;2023-04-24T15:12:19;4.03;;;3.40;;
78903;SDS011;68291;49.602;8.722;2023-04-24T15:14:52;3.70;;;3.30;;
78903;SDS011;68291;49.602;8.722;2023-04-24T15:17:45;3.67;;;3.30;;
78903;SDS011;68291;49.602;8.722;2023-04-24T15:20:31;5.07;;;3.40;;
78903;SDS011;68291;49.602;8.722;2023-04-24T15:23:14;3.70;;;3.03;;
78903;SDS011;68291;49.602;8.722;2023-04-24T15:25:53;4.43;;;3.13;;
78903;SDS011;68291;49.602;8.722;2023-04-24T15:28:30;3.97;;;2.83;;
78903;SDS011;68291;49.602;8.722;2023-04-24T15:31:13;5.20;;;3.23;;
78903;SDS011;68291;49.602;8.722;2023-04-24T15:34:10;3.50;;;3.07;;
78903;SDS011;68291;49.602;8.722;2023-04-24T15:37:07;3.83;;;3.30;;
78903;SDS011;68291;49.602;8.722;2023-04-24T15:40:03;4.83;;;3.17;;
78903;SDS011;68291;49.602;8.722;2023-04-24T15:42:50;4.20;;;3.20;;
78903;SDS011;68291;49.602;8.722;2023-04-24T15:45:39;3.37;;;3.00;;
78903;SDS011;68291;49.602;8.722;2023-04-24T15:48:11;3.43;;;3.10;;
78903;SDS011;68291;49.602;8.722;2023-04-24T15:50:57;3.87;;;2.70;;
78903;SDS011;68291;49.602;8.722;2023-04-24T15:53:36;3.73;;;2.90;;
78903;SDS011;68291;49.602;8.722;2023-04-24T15:56:09;3.37;;;3.07;;
78903;SDS011;68291;49.602;8.722;2023-04-24T15:58:57;4.43;;;2.70;;
78903;SDS011;68291;49.602;8.722;2023-04-24T16:01:37;3.43;;;2.80;;
78903;SDS011;68291;49.602;8.722;2023-04-24T16:04:14;3.20;;;2.90;;
78903;SDS011;68291;49.602;8.722;2023-04-24T16:06:47;3.07;;;2.70;;
78903;SDS011;68291;49.602;8.722;2023-04-24T16:09:33;3.53;;;2.40;;
78903;SDS011;68291;49.602;8.722;2023-04-24T16:12:08;4.63;;;3.10;;
78903;SDS011;68291;49.602;8.722;2023-04-24T16:14:42;3.20;;;2.90;;
78903;SDS011;68291;49.602;8.722;2023-04-24T16:17:27;3.30;;;2.70;;
78903;SDS011;68291;49.602;8.722;2023-04-24T16:20:00;3.20;;;2.90;;
78903;SDS011;68291;49.602;8.722;2023-04-24T16:23:00;4.07;;;3.07;;
78903;SDS011;68291;49.602;8.722;2023-04-24T16:25:43;3.00;;;2.70;;
78903;SDS011;68291;49.602;8.722;2023-04-24T16:28:33;3.27;;;2.70;;
78903;SDS011;68291;49.602;8.722;2023-04-24T16:31:19;3.77;;;3.13;;
78903;SDS011;68291;49.602;8.722;2023-04-24T16:34:13;4.33;;;3.17;;
78903;SDS011;68291;49.602;8.722;2023-04-24T16:37:11;3.00;;;2.70;;
78903;SDS011;68291;49.602;8.722;2023-04-24T16:39:54;4.73;;;2.80;;
78903;SDS011;68291;49.602;8.722;2023-04-24T16:42:42;3.10;;;2.80;;
78903;SDS011;68291;49.602;8.722;2023-04-24T16:45:33;3.57;;;2.80;;
78903;SDS011;68291;49.602;8.722;2023-04-24T16:48:26;4.83;;;3.20;;
78903;SDS011;68291;49.602;8.722;2023-04-24T16:51:08;3.93;;;2.90;;
78903;SDS011;68291;49.602;8.722;2023-04-24T16:53:51;5.30;;;2.83;;
78903;SDS011;68291;49.602;8.722;2023-04-24T16:56:36;3.43;;;3.13;;
78903;SDS011;68291;49.602;8.722;2023-04-24T16:59:14;2.97;;;2.63;;
78903;SDS011;68291;49.602;8.722;2023-04-24T17:01:57;3.07;;;2.80;;
78903;SDS011;68291;49.602;8.722;2023-04-24T17:07:27;3.00;;;2.70;;
78903;SDS011;68291;49.602;8.722;2023-04-24T17:10:19;2.63;;;2.43;;
78903;SDS011;68291;49.602;8.722;2023-04-24T17:12:50;4.10;;;2.77;;